TAFOR
Diposting tanggal: 10 Juni 2019

Pukul : 06 - 18 UTC

Isi :

TAF WAGI 200500Z 2006/2018 18005KT 9000 SCT015 BECMG 20011/2012 00000KT=